Flight Track Log - Related Links

Times and Time Zones

All times are in EDT time to prevent confusion due to time zone crossing. See the N234CE flight status page for this flight to view local times or setup timezone preferences in your user account.

Time Position Orientation Groundspeed Altitude Reporting Facility
EDT Latitude Longitude Course Direction KTS MPH feet Rate Location/Type
Sat 03:05:21 AM 67.0667 -150.2500 150° Southeast 120 138 6,000  Level Anchorage Center
Sat 03:06:21 AM 67.0333 -150.2000 150° Southeast 110 127 6,800 694 Climbing Anchorage Center
Sat 03:07:22 AM 67.0000 -150.1667 159° South 130 150 7,400 645 Climbing Anchorage Center
Sat 03:08:22 AM 66.9667 -150.1333 159° South 140 161 8,100 800 Climbing Anchorage Center
Sat 03:09:22 AM 66.9333 -150.1000 159° South 130 150 9,000 446 Climbing Anchorage Center
Sat 03:10:23 AM 66.9000 -150.0667 159° South 180 207 9,000  Level Anchorage Center
Sat 03:11:23 AM 66.8500 -150.0167 159° South 170 196 9,000  Level Anchorage Center
Sat 03:12:24 AM 66.8000 -149.9667 158° South 180 207 9,000  Level Anchorage Center
Sat 03:13:24 AM 66.7667 -149.9333 158° South 170 196 9,000  Level Anchorage Center
Sat 03:14:24 AM 66.7167 -149.8833 158° South 190 219 9,000  Level Anchorage Center
Sat 03:15:25 AM 66.6667 -149.8500 165° South 170 196 9,000  Level Anchorage Center
Sat 03:16:25 AM 66.6333 -149.8000 149° Southeast 180 207 9,000  Level Anchorage Center
Sat 03:17:25 AM 66.5833 -149.7333 152° Southeast 180 207 9,000  Level Anchorage Center
Sat 03:18:26 AM 66.5500 -149.6667 141° Southeast 170 196 9,000  Level Anchorage Center
Sat 03:19:26 AM 66.5000 -149.6167 158° South 170 196 9,000  Level Anchorage Center
Sat 03:20:26 AM 66.4667 -149.5500 141° Southeast 170 196 9,000  Level Anchorage Center
Sat 03:21:27 AM 66.4167 -149.4667 146° Southeast 190 219 9,000  Level Anchorage Center
Sat 03:22:27 AM 66.3667 -149.4000 152° Southeast 180 207 9,000  Level Anchorage Center
Sat 03:23:27 AM 66.3333 -149.3333 141° Southeast 180 207 9,000  Level Anchorage Center
Sat 03:24:27 AM 66.2833 -149.2667 152° Southeast 180 207 9,000  Level Anchorage Center
Sat 03:25:28 AM 66.2500 -149.2167 149° Southeast 170 196 9,000  Level Anchorage Center
Sat 03:26:28 AM 66.2000 -149.1333 146° Southeast 180 207 9,000  Level Anchorage Center
Sat 03:27:28 AM 66.1667 -149.0667 141° Southeast 170 196 9,000  Level Anchorage Center
Sat 03:28:29 AM 66.1167 -149.0167 158° South 180 207 9,000  Level Anchorage Center
Sat 03:29:29 AM 66.0833 -148.9333 135° Southeast 190 219 9,000  Level Anchorage Center
Sat 03:30:29 AM 66.0333 -148.8833 158° South 180 207 9,000 -99 Level Anchorage Center
Sat 03:31:30 AM 66.0000 -148.8167 141° Southeast 190 219 8,800 -397 Descending Anchorage Center
Sat 03:32:30 AM 65.9500 -148.7500 151° Southeast 190 219 8,200 -600 Descending Anchorage Center
Sat 03:33:30 AM 65.9000 -148.6833 151° Southeast 200 230 7,600 -545 Descending Anchorage Center
Sat 03:34:31 AM 65.8500 -148.6000 146° Southeast 200 230 7,100 -248 Descending Anchorage Center
Sat 03:35:31 AM 65.8000 -148.5333 151° Southeast 190 219 7,100  Level Anchorage Center
Sat 03:36:31 AM 65.7667 -148.4667 141° Southeast 170 196 7,100  Level Anchorage Center
Sat 03:37:32 AM 65.7167 -148.4000 151° Southeast 190 219 7,100  Level Anchorage Center
Sat 03:38:32 AM 65.6833 -148.3500 148° Southeast 170 196 7,100  Level Anchorage Center
Sat 03:39:33 AM 65.6333 -148.2833 151° Southeast 180 207 7,100  Level Anchorage Center
Sat 03:40:33 AM 65.6000 -148.2333 148° Southeast 170 196 7,100  Level Anchorage Center
Sat 03:41:33 AM 65.5500 -148.1667 151° Southeast 180 207 7,100  Level Anchorage Center
Sat 03:42:34 AM 65.5167 -148.1000 140° Southeast 190 219 7,100  Level Anchorage Center
Sat 03:43:34 AM 65.4667 -148.0500 157° South 180 207 7,100  Level Anchorage Center
Sat 03:45:00 AM 65.4153 -147.9595 144° Southeast  Level FlightAware Approximate
Sat 03:52:00 AM 65.1520 -147.5701 153° Southeast  Level FlightAware Approximate
Sat 03:53:00 AM 65.1123 -147.5232 154° Southeast  Level FlightAware Approximate
Sat 03:54:00 AM 65.0725 -147.4764 154° Southeast  Level FlightAware Approximate
Sat 03:55:00 AM 65.0323 -147.4351 218° Southwest  Level FlightAware Approximate
Sat 03:56:00 AM 64.9972 -147.4995 218° Southwest  Level FlightAware Approximate
Sat 03:57:00 AM 64.9621 -147.5636 218° Southwest  Level FlightAware Approximate
Sat 03:58:00 AM 64.9269 -147.6276 218° Southwest  Level FlightAware Approximate
Sat 03:59:00 AM 64.8917 -147.6914 218° Southwest  Level FlightAware Approximate
Sat 04:00:00 AM 64.8565 -147.7550 218° Southwest  Level FlightAware Approximate
Sat 04:01:00 AM 64.8204 -147.8160 215° Southwest  Level FlightAware Approximate
Sat 04:02:00 AM 64.8000 -147.8500 215° Southwest  Level FlightAware Approximate
Sat 04:03:00 AM 64.8151 -147.8564 215° Southwest  Level Estimated
Sat 04:04:00 AM 64.8151 -147.8564 215° Southwest  Level Estimated
Sat 04:05:00 AM 64.8151 -147.8564 215° Southwest  Level Estimated
Sat 04:06:00 AM 64.8151 -147.8564 215° Southwest  Level Estimated
Sat 04:07:00 AM 64.8151 -147.8564 215° Southwest  Level Estimated
Sat 04:08:00 AM 64.8151 -147.8564 215° Southwest  Level Estimated
Sat 04:09:00 AM 64.8151 -147.8564 215° Southwest  Level Estimated
Sat 04:10:00 AM 64.8151 -147.8564 215° Southwest  Level Estimated
Sat 04:11:00 AM 64.8151 -147.8564 215° Southwest  Level Estimated
Sat 04:12:00 AM 64.8151 -147.8564 215° Southwest  Level Estimated
Sat 04:13:00 AM 64.8151 -147.8564 215° Southwest  Level Estimated
Sat 04:14:00 AM 64.8151 -147.8564 215° Southwest  Level Estimated
Sat 04:15:00 AM 64.8151 -147.8564 215° Southwest  Level Estimated

Login

Don't have an account? Register now (free) for customized features, flight alerts, and more!